createdAt,value
2022-11-27T00:00:01.906Z,7.20
2022-11-27T00:02:29.039Z,7.20
2022-11-27T00:04:56.162Z,7.20
2022-11-27T00:07:23.301Z,7.10
2022-11-27T00:09:50.296Z,7.20
2022-11-27T00:12:17.312Z,7.10
2022-11-27T00:14:44.279Z,7.10
2022-11-27T00:17:11.267Z,7.20
2022-11-27T00:19:38.594Z,7.10
2022-11-27T00:22:05.776Z,7.20
2022-11-27T00:24:32.774Z,7.20
2022-11-27T00:26:59.724Z,7.10
2022-11-27T00:29:29.174Z,7.20
2022-11-27T00:31:56.634Z,7.10
2022-11-27T00:34:23.590Z,7.10
2022-11-27T00:36:50.558Z,7.10
2022-11-27T00:39:17.836Z,7.10
2022-11-27T00:41:45.366Z,7.10
2022-11-27T00:44:14.286Z,7.10
2022-11-27T00:46:42.255Z,7.10
2022-11-27T00:49:12.431Z,7.10
2022-11-27T00:51:39.677Z,7.10
2022-11-27T00:54:07.423Z,7.00
2022-11-27T00:56:38.627Z,7.10
2022-11-27T00:59:07.101Z,7.10
2022-11-27T01:01:43.372Z,7.10
2022-11-27T01:04:14.291Z,7.10
2022-11-27T01:06:42.117Z,7.10
2022-11-27T01:09:10.403Z,7.10
2022-11-27T01:11:37.684Z,7.00
2022-11-27T01:14:07.984Z,7.10
2022-11-27T01:16:36.421Z,7.10
2022-11-27T01:19:05.792Z,7.10
2022-11-27T01:21:34.515Z,7.10
2022-11-27T01:24:02.982Z,7.00
2022-11-27T01:26:30.288Z,7.00
2022-11-27T01:28:58.758Z,7.00
2022-11-27T01:31:29.648Z,7.00
2022-11-27T01:34:06.411Z,7.00
2022-11-27T01:36:35.242Z,7.00
2022-11-27T01:39:03.496Z,7.00
2022-11-27T01:41:39.982Z,6.90
2022-11-27T01:44:25.099Z,6.90
2022-11-27T01:46:58.448Z,6.90
2022-11-27T01:49:25.470Z,6.90
2022-11-27T01:51:52.358Z,6.90
2022-11-27T01:54:21.909Z,6.90
2022-11-27T01:56:52.364Z,6.90
2022-11-27T01:59:19.577Z,6.90
2022-11-27T02:01:46.589Z,6.80
2022-11-27T02:04:13.794Z,6.80
2022-11-27T02:06:40.824Z,6.80
2022-11-27T02:09:07.794Z,6.80
2022-11-27T02:12:00.778Z,6.80
2022-11-27T02:14:53.533Z,6.80
2022-11-27T02:17:48.788Z,6.70
2022-11-27T02:20:31.070Z,6.70
2022-11-27T02:23:10.276Z,6.70
2022-11-27T02:25:46.177Z,6.70
2022-11-27T02:28:32.997Z,6.70
2022-11-27T02:31:16.733Z,6.70
2022-11-27T02:33:49.018Z,6.60
2022-11-27T02:36:22.922Z,6.60
2022-11-27T02:38:55.624Z,6.60
2022-11-27T02:41:46.911Z,6.60
2022-11-27T02:44:16.897Z,6.60
2022-11-27T02:46:45.592Z,6.60
2022-11-27T02:49:17.873Z,6.50
2022-11-27T02:52:04.855Z,6.60
2022-11-27T02:54:32.889Z,6.50
2022-11-27T02:57:03.730Z,6.50
2022-11-27T02:59:33.534Z,6.50
2022-11-27T03:02:07.732Z,6.50
2022-11-27T03:04:52.122Z,6.50
2022-11-27T03:07:28.108Z,6.50
2022-11-27T03:10:00.848Z,6.50
2022-11-27T03:12:28.126Z,6.40
2022-11-27T03:14:55.308Z,6.40
2022-11-27T03:17:40.005Z,6.40
2022-11-27T03:20:42.260Z,6.40
2022-11-27T03:23:09.286Z,6.40
2022-11-27T03:25:36.283Z,6.40
2022-11-27T03:28:08.587Z,6.40
2022-11-27T03:30:35.662Z,6.40
2022-11-27T03:33:03.203Z,6.40
2022-11-27T03:35:31.377Z,6.30
2022-11-27T03:37:58.491Z,6.30
2022-11-27T03:40:34.304Z,6.40
2022-11-27T03:43:11.415Z,6.30
2022-11-27T03:45:52.795Z,6.30
2022-11-27T03:48:22.748Z,6.30
2022-11-27T03:51:10.862Z,6.30
2022-11-27T03:53:43.441Z,6.30
2022-11-27T03:56:34.203Z,6.30
2022-11-27T03:59:23.539Z,6.20
2022-11-27T04:01:51.008Z,6.20
2022-11-27T04:04:18.175Z,6.20
2022-11-27T04:06:45.375Z,6.20
2022-11-27T04:09:12.336Z,6.20
2022-11-27T04:11:39.369Z,6.20
2022-11-27T04:14:06.771Z,6.20
2022-11-27T04:16:33.865Z,6.20
2022-11-27T04:19:01.058Z,6.20
2022-11-27T04:21:28.025Z,6.20
2022-11-27T04:23:55.216Z,6.20
2022-11-27T04:26:22.346Z,6.20
2022-11-27T04:28:49.293Z,6.20
2022-11-27T04:31:16.413Z,6.20
2022-11-27T04:33:43.382Z,6.20
2022-11-27T04:36:10.601Z,6.20
2022-11-27T04:38:37.915Z,6.10
2022-11-27T04:41:05.075Z,6.10
2022-11-27T04:43:32.072Z,6.10
2022-11-27T04:45:59.034Z,6.10
2022-11-27T04:48:26.051Z,6.10
2022-11-27T04:50:55.388Z,6.10
2022-11-27T04:53:22.667Z,6.10
2022-11-27T04:55:52.376Z,6.10
2022-11-27T04:58:19.406Z,6.10
2022-11-27T05:00:46.543Z,6.00
2022-11-27T05:03:13.819Z,6.10
2022-11-27T05:05:40.827Z,6.00
2022-11-27T05:08:07.858Z,6.00
2022-11-27T05:10:34.834Z,6.00
2022-11-27T05:13:01.815Z,6.00
2022-11-27T05:15:28.913Z,6.00
2022-11-27T05:17:55.888Z,6.00
2022-11-27T05:20:22.945Z,6.00
2022-11-27T05:22:50.830Z,6.00
2022-11-27T05:25:17.881Z,5.90
2022-11-27T05:27:44.862Z,5.90
2022-11-27T05:30:12.116Z,6.00
2022-11-27T05:32:39.137Z,6.00
2022-11-27T05:35:06.564Z,6.00
2022-11-27T05:37:33.507Z,6.00
2022-11-27T05:40:00.571Z,6.00
2022-11-27T05:42:27.651Z,5.90
2022-11-27T05:44:58.245Z,5.90
2022-11-27T05:47:25.783Z,5.90
2022-11-27T05:49:52.911Z,5.90
2022-11-27T05:52:19.989Z,5.90
2022-11-27T05:54:46.985Z,5.90
2022-11-27T05:57:13.995Z,5.90
2022-11-27T05:59:40.969Z,5.90
2022-11-27T06:02:08.104Z,5.90
2022-11-27T06:04:35.152Z,5.90
2022-11-27T06:07:02.125Z,5.90
2022-11-27T06:09:29.134Z,5.90
2022-11-27T06:11:56.583Z,5.90
2022-11-27T06:14:23.731Z,5.90
2022-11-27T06:16:50.837Z,5.80
2022-11-27T06:19:17.940Z,5.80
2022-11-27T06:21:46.548Z,5.80
2022-11-27T06:24:13.684Z,5.80
2022-11-27T06:26:40.750Z,5.80
2022-11-27T06:29:07.899Z,5.80
2022-11-27T06:31:35.344Z,5.80
2022-11-27T06:34:02.878Z,5.90
2022-11-27T06:36:38.190Z,5.90
2022-11-27T06:39:06.746Z,5.90
2022-11-27T06:41:34.156Z,5.90
2022-11-27T06:44:01.653Z,6.00
2022-11-27T06:46:29.927Z,6.00
2022-11-27T06:48:57.843Z,6.10
2022-11-27T06:51:27.959Z,6.20
2022-11-27T06:53:55.232Z,6.20
2022-11-27T06:56:24.762Z,6.30
2022-11-27T06:58:57.198Z,6.40
2022-11-27T07:01:26.519Z,6.50
2022-11-27T07:03:53.947Z,6.50
2022-11-27T07:06:23.107Z,6.50
2022-11-27T07:08:50.491Z,6.60
2022-11-27T07:11:21.112Z,6.70
2022-11-27T07:13:49.431Z,6.70
2022-11-27T07:16:18.442Z,6.70
2022-11-27T07:18:48.298Z,7.20
2022-11-27T07:21:15.616Z,8.60
2022-11-27T07:23:42.966Z,10.00
2022-11-27T07:26:16.061Z,11.30
2022-11-27T07:28:44.040Z,12.30
2022-11-27T07:31:12.983Z,13.10
2022-11-27T07:33:40.253Z,13.90
2022-11-27T07:36:19.548Z,14.60
2022-11-27T07:38:47.415Z,15.50
2022-11-27T07:41:14.974Z,16.40
2022-11-27T07:43:43.049Z,17.10
2022-11-27T07:46:19.440Z,17.70
2022-11-27T07:48:46.743Z,18.40
2022-11-27T07:51:15.710Z,18.90
2022-11-27T07:53:42.989Z,19.40
2022-11-27T07:56:12.956Z,19.80
2022-11-27T07:58:40.452Z,20.20
2022-11-27T08:01:15.371Z,20.50
2022-11-27T08:03:46.274Z,20.80
2022-11-27T08:06:24.940Z,21.00
2022-11-27T08:08:52.597Z,21.20
2022-11-27T08:11:24.389Z,21.40
2022-11-27T08:14:03.073Z,21.50
2022-11-27T08:16:31.292Z,21.50
2022-11-27T08:18:58.798Z,21.40
2022-11-27T08:21:27.113Z,21.30
2022-11-27T08:23:54.121Z,21.10
2022-11-27T08:26:21.335Z,21.00
2022-11-27T08:28:48.322Z,20.70
2022-11-27T08:31:16.176Z,20.50
2022-11-27T08:33:43.207Z,20.30
2022-11-27T08:36:16.260Z,20.10
2022-11-27T08:38:44.834Z,20.00
2022-11-27T08:41:11.940Z,19.90
2022-11-27T08:43:38.898Z,19.70
2022-11-27T08:46:07.417Z,19.40
2022-11-27T08:48:34.844Z,19.20
2022-11-27T08:51:07.190Z,19.10
2022-11-27T08:53:34.314Z,19.00
2022-11-27T08:56:07.475Z,19.00
2022-11-27T08:58:34.354Z,19.00
2022-11-27T09:01:06.918Z,19.00
2022-11-27T09:03:33.959Z,19.20
2022-11-27T09:06:00.832Z,19.20
2022-11-27T09:08:27.645Z,19.20
2022-11-27T09:10:54.472Z,19.20
2022-11-27T09:13:21.284Z,19.10
2022-11-27T09:15:48.126Z,19.10
2022-11-27T09:18:14.929Z,19.20
2022-11-27T09:20:41.787Z,19.50
2022-11-27T09:23:14.150Z,19.90
2022-11-27T09:25:41.270Z,20.20
2022-11-27T09:28:08.093Z,20.50
2022-11-27T09:30:35.084Z,20.90
2022-11-27T09:33:02.206Z,21.20
2022-11-27T09:35:29.124Z,21.60
2022-11-27T09:37:56.078Z,21.90
2022-11-27T09:40:22.984Z,22.10
2022-11-27T09:43:02.965Z,22.20
2022-11-27T09:45:30.457Z,22.10
2022-11-27T09:48:02.844Z,22.00
2022-11-27T09:50:32.030Z,22.10
2022-11-27T09:53:01.313Z,22.30
2022-11-27T09:55:37.851Z,22.50
2022-11-27T09:58:06.736Z,22.50
2022-11-27T10:00:33.731Z,22.50
2022-11-27T10:03:00.682Z,22.50
2022-11-27T10:05:39.892Z,22.80
2022-11-27T10:08:16.108Z,23.20
2022-11-27T10:10:58.132Z,23.60
2022-11-27T10:13:40.068Z,24.00
2022-11-27T10:16:22.293Z,24.50
2022-11-27T10:18:54.437Z,25.20
2022-11-27T10:21:33.364Z,25.80
2022-11-27T10:24:07.680Z,26.00
2022-11-27T10:26:39.051Z,26.40
2022-11-27T10:29:15.018Z,26.60
2022-11-27T10:31:41.846Z,26.90
2022-11-27T10:34:27.625Z,27.20
2022-11-27T10:36:55.523Z,27.70
2022-11-27T10:39:25.705Z,28.10
2022-11-27T10:41:57.225Z,28.00
2022-11-27T10:44:24.114Z,28.10
2022-11-27T10:46:52.340Z,28.20
2022-11-27T10:49:19.148Z,28.00
2022-11-27T10:51:46.006Z,28.00
2022-11-27T10:54:21.798Z,27.90
2022-11-27T10:57:07.368Z,27.20
2022-11-27T10:59:39.960Z,26.70
2022-11-27T11:02:24.679Z,26.90
2022-11-27T11:05:16.120Z,26.70
2022-11-27T11:07:39.019Z,26.20
2022-11-27T11:10:32.342Z,25.00
2022-11-27T11:13:11.262Z,24.30
2022-11-27T11:15:55.059Z,25.00
2022-11-27T11:18:24.098Z,25.60
2022-11-27T11:20:52.530Z,25.40
2022-11-27T11:23:23.971Z,25.80
2022-11-27T11:25:52.296Z,26.30
2022-11-27T11:28:20.002Z,26.70
2022-11-27T11:30:55.025Z,26.90
2022-11-27T11:33:21.892Z,26.70
2022-11-27T11:35:53.422Z,26.50
2022-11-27T11:38:26.771Z,26.50
2022-11-27T11:41:03.531Z,26.20
2022-11-27T11:43:33.083Z,25.80
2022-11-27T11:46:08.601Z,25.00
2022-11-27T11:48:36.963Z,23.60
2022-11-27T11:51:29.427Z,22.50
2022-11-27T11:54:06.210Z,21.70
2022-11-27T11:56:35.414Z,20.80
2022-11-27T11:59:26.003Z,20.10
2022-11-27T12:01:56.643Z,19.90
2022-11-27T12:04:39.402Z,19.90
2022-11-27T12:07:16.313Z,20.00
2022-11-27T12:10:10.870Z,20.20
2022-11-27T12:12:37.841Z,20.10
2022-11-27T12:15:13.410Z,19.60
2022-11-27T12:17:43.783Z,19.10
2022-11-27T12:20:38.706Z,18.50
2022-11-27T12:23:05.871Z,18.00
2022-11-27T12:25:35.922Z,17.50
2022-11-27T12:28:06.632Z,17.30
2022-11-27T12:30:54.342Z,17.10
2022-11-27T12:33:28.810Z,16.80
2022-11-27T12:36:07.747Z,16.60
2022-11-27T12:38:48.135Z,16.40
2022-11-27T12:41:43.000Z,16.10
2022-11-27T12:44:34.315Z,16.00
2022-11-27T12:47:11.412Z,15.90
2022-11-27T12:49:46.581Z,15.90
2022-11-27T12:52:28.522Z,15.90
2022-11-27T12:55:15.508Z,16.00
2022-11-27T12:58:09.698Z,16.10
2022-11-27T13:00:44.181Z,16.00
2022-11-27T13:03:25.282Z,16.10
2022-11-27T13:05:58.170Z,16.10
2022-11-27T13:08:30.762Z,16.10
2022-11-27T13:11:04.999Z,16.20
2022-11-27T13:13:37.477Z,16.40
2022-11-27T13:16:15.599Z,16.40
2022-11-27T13:18:50.585Z,16.40
2022-11-27T13:21:28.502Z,16.10
2022-11-27T13:23:56.275Z,15.90
2022-11-27T13:26:40.449Z,15.90
2022-11-27T13:29:24.971Z,16.20
2022-11-27T13:31:57.418Z,16.90
2022-11-27T13:34:28.595Z,17.70
2022-11-27T13:37:03.091Z,18.40
2022-11-27T13:39:33.104Z,19.00
2022-11-27T13:42:07.988Z,19.90
2022-11-27T13:44:37.458Z,20.70
2022-11-27T13:47:15.607Z,21.40
2022-11-27T13:49:43.522Z,21.70
2022-11-27T13:52:10.627Z,21.70
2022-11-27T13:54:37.631Z,21.60
2022-11-27T13:57:11.684Z,21.50
2022-11-27T13:59:39.594Z,21.40
2022-11-27T14:02:07.770Z,21.20
2022-11-27T14:04:34.966Z,20.80
2022-11-27T14:07:06.839Z,20.30
2022-11-27T14:09:36.299Z,19.80
2022-11-27T14:12:13.261Z,19.40
2022-11-27T14:14:41.404Z,19.10
2022-11-27T14:17:23.837Z,18.80
2022-11-27T14:19:59.347Z,18.50
2022-11-27T14:23:10.014Z,18.20
2022-11-27T14:25:36.414Z,17.90
2022-11-27T14:28:26.026Z,17.50
2022-11-27T14:31:01.597Z,17.10
2022-11-27T14:33:59.643Z,16.50
2022-11-27T14:36:23.489Z,15.90
2022-11-27T14:38:50.559Z,15.30
2022-11-27T14:41:20.680Z,14.80
2022-11-27T14:43:48.100Z,14.40
2022-11-27T14:46:19.288Z,14.00
2022-11-27T14:48:57.034Z,13.70
2022-11-27T14:51:26.956Z,13.40
2022-11-27T14:54:03.320Z,13.00
2022-11-27T14:56:40.670Z,12.80
2022-11-27T14:59:16.005Z,12.50
2022-11-27T15:01:43.216Z,12.30
2022-11-27T15:04:34.701Z,12.00
2022-11-27T15:07:05.706Z,11.90
2022-11-27T15:09:35.773Z,11.70
2022-11-27T15:12:15.270Z,11.50
2022-11-27T15:14:54.424Z,11.30
2022-11-27T15:17:27.196Z,11.20
2022-11-27T15:19:56.145Z,11.00
2022-11-27T15:22:23.536Z,10.80
2022-11-27T15:25:07.866Z,10.70
2022-11-27T15:27:47.589Z,10.50
2022-11-27T15:30:18.373Z,10.40
2022-11-27T15:32:53.440Z,10.30
2022-11-27T15:35:25.284Z,10.20
2022-11-27T15:37:52.864Z,10.10
2022-11-27T15:40:33.631Z,10.00
2022-11-27T15:43:00.690Z,9.80
2022-11-27T15:45:30.449Z,9.70
2022-11-27T15:48:00.065Z,9.60
2022-11-27T15:50:27.947Z,9.50
2022-11-27T15:52:54.775Z,9.40
2022-11-27T15:55:22.405Z,9.30
2022-11-27T15:57:49.598Z,9.20
2022-11-27T16:00:17.107Z,9.10
2022-11-27T16:02:44.211Z,8.90
2022-11-27T16:05:11.328Z,8.90
2022-11-27T16:07:38.622Z,8.90
2022-11-27T16:10:06.518Z,8.80
2022-11-27T16:12:33.955Z,8.80
2022-11-27T16:15:00.911Z,8.80
2022-11-27T16:17:27.948Z,8.80
2022-11-27T16:19:54.996Z,8.80
2022-11-27T16:22:22.121Z,8.80
2022-11-27T16:24:49.402Z,8.80
2022-11-27T16:27:16.544Z,8.80
2022-11-27T16:29:44.235Z,8.70
2022-11-27T16:32:11.402Z,8.70
2022-11-27T16:34:38.742Z,8.60
2022-11-27T16:37:07.016Z,8.60
2022-11-27T16:39:34.042Z,8.60
2022-11-27T16:42:02.524Z,8.50
2022-11-27T16:44:29.690Z,8.50
2022-11-27T16:46:56.660Z,8.50
2022-11-27T16:49:24.203Z,8.40
2022-11-27T16:51:51.781Z,8.40
2022-11-27T16:54:19.419Z,8.40
2022-11-27T16:56:46.699Z,8.30
2022-11-27T16:59:15.579Z,8.30
2022-11-27T17:01:44.065Z,8.30
2022-11-27T17:04:19.166Z,8.30
2022-11-27T17:06:49.155Z,8.40
2022-11-27T17:09:16.677Z,8.30
2022-11-27T17:11:48.721Z,8.30
2022-11-27T17:14:17.097Z,8.30
2022-11-27T17:16:45.063Z,8.20
2022-11-27T17:19:15.063Z,8.20
2022-11-27T17:21:43.667Z,8.10
2022-11-27T17:24:15.271Z,8.10
2022-11-27T17:26:45.592Z,8.10
2022-11-27T17:29:14.365Z,8.00
2022-11-27T17:31:42.012Z,8.00
2022-11-27T17:34:13.158Z,8.00
2022-11-27T17:36:43.148Z,7.90
2022-11-27T17:39:13.140Z,7.90
2022-11-27T17:41:40.998Z,7.90
2022-11-27T17:44:08.638Z,7.90
2022-11-27T17:46:36.995Z,7.90
2022-11-27T17:49:07.141Z,7.90
2022-11-27T17:51:35.990Z,7.80
2022-11-27T17:54:04.522Z,7.80
2022-11-27T17:56:33.543Z,7.80
2022-11-27T17:59:01.165Z,7.80
2022-11-27T18:01:30.725Z,7.80
2022-11-27T18:04:01.263Z,7.70
2022-11-27T18:06:31.187Z,7.70
2022-11-27T18:08:58.914Z,7.70
2022-11-27T18:11:28.682Z,7.70
2022-11-27T18:13:58.896Z,7.70
2022-11-27T18:16:32.597Z,7.60
2022-11-27T18:19:02.846Z,7.60
2022-11-27T18:21:31.063Z,7.50
2022-11-27T18:24:22.624Z,7.50
2022-11-27T18:29:35.319Z,7.50
2022-11-27T18:32:02.433Z,7.40
2022-11-27T18:34:29.533Z,7.40
2022-11-27T18:36:59.516Z,7.50
2022-11-27T18:39:27.485Z,7.40
2022-11-27T18:41:54.483Z,7.40
2022-11-27T18:44:21.578Z,7.40
2022-11-27T18:46:48.655Z,7.40
2022-11-27T18:49:16.058Z,7.40
2022-11-27T18:51:43.255Z,7.30
2022-11-27T18:54:10.476Z,7.30
2022-11-27T18:56:38.264Z,7.30
2022-11-27T18:59:07.280Z,7.30
2022-11-27T19:01:41.216Z,7.30
2022-11-27T19:04:10.511Z,7.20
2022-11-27T19:06:38.670Z,7.20
2022-11-27T19:09:06.646Z,7.20
2022-11-27T19:11:35.212Z,7.20
2022-11-27T19:14:04.294Z,7.20
2022-11-27T19:16:34.129Z,7.20
2022-11-27T19:19:03.018Z,7.10
2022-11-27T19:21:33.241Z,7.10
2022-11-27T19:24:02.629Z,7.10
2022-11-27T19:26:32.196Z,7.10
2022-11-27T19:29:02.585Z,7.10
2022-11-27T19:31:32.107Z,7.10
2022-11-27T19:34:01.924Z,7.10
2022-11-27T19:36:31.716Z,7.00
2022-11-27T19:39:06.104Z,7.00
2022-11-27T19:41:33.878Z,7.00
2022-11-27T19:44:03.593Z,7.00
2022-11-27T19:46:33.041Z,7.00
2022-11-27T19:49:03.645Z,7.00
2022-11-27T19:51:41.107Z,7.00
2022-11-27T19:54:13.120Z,7.00
2022-11-27T19:56:42.602Z,7.00
2022-11-27T19:59:10.603Z,6.90
2022-11-27T20:01:40.325Z,6.90
2022-11-27T20:04:10.160Z,6.90
2022-11-27T20:06:37.436Z,6.90
2022-11-27T20:09:05.844Z,6.90
2022-11-27T20:11:35.444Z,6.90
2022-11-27T20:14:05.369Z,6.90
2022-11-27T20:16:34.384Z,6.90
2022-11-27T20:19:05.345Z,6.80
2022-11-27T20:21:34.094Z,6.80
2022-11-27T20:24:02.614Z,6.80
2022-11-27T20:26:30.666Z,6.80
2022-11-27T20:28:59.825Z,6.80
2022-11-27T20:31:36.444Z,6.90
2022-11-27T20:34:05.839Z,6.90
2022-11-27T20:36:39.973Z,6.90
2022-11-27T20:39:19.211Z,6.90
2022-11-27T20:41:54.690Z,6.90
2022-11-27T20:44:24.548Z,6.90
2022-11-27T20:46:53.041Z,6.90
2022-11-27T20:49:20.649Z,6.90
2022-11-27T20:51:51.114Z,6.90
2022-11-27T20:54:23.468Z,6.90
2022-11-27T20:56:54.504Z,6.90
2022-11-27T20:59:25.698Z,6.90
2022-11-27T21:01:55.813Z,6.90
2022-11-27T21:04:27.731Z,6.80
2022-11-27T21:06:56.594Z,6.90
2022-11-27T21:09:24.939Z,6.80
2022-11-27T21:11:51.949Z,6.80
2022-11-27T21:14:19.078Z,6.90
2022-11-27T21:16:50.081Z,6.80
2022-11-27T21:19:28.333Z,6.90
2022-11-27T21:21:57.229Z,6.90
2022-11-27T21:24:27.482Z,6.90
2022-11-27T21:26:58.576Z,6.90
2022-11-27T21:29:29.451Z,6.80
2022-11-27T21:31:58.406Z,6.90
2022-11-27T21:34:25.835Z,6.90
2022-11-27T21:36:52.946Z,6.90
2022-11-27T21:39:20.994Z,6.90
2022-11-27T21:41:51.041Z,6.90
2022-11-27T21:44:19.888Z,6.90
2022-11-27T21:46:55.995Z,6.90
2022-11-27T21:49:30.829Z,6.90
2022-11-27T21:51:59.594Z,6.90
2022-11-27T21:54:31.836Z,6.90
2022-11-27T21:56:58.955Z,6.90
2022-11-27T21:59:26.157Z,6.90
2022-11-27T22:01:53.423Z,6.90
2022-11-27T22:04:21.414Z,6.90
2022-11-27T22:06:48.452Z,6.90
2022-11-27T22:09:19.653Z,6.90
2022-11-27T22:11:49.607Z,6.90
2022-11-27T22:14:19.642Z,6.90
2022-11-27T22:16:47.359Z,6.90
2022-11-27T22:19:16.298Z,6.90
2022-11-27T22:21:46.077Z,6.90
2022-11-27T22:24:18.823Z,6.90
2022-11-27T22:26:54.124Z,6.80
2022-11-27T22:29:21.093Z,6.90
2022-11-27T22:31:48.307Z,6.80
2022-11-27T22:34:16.401Z,6.80
2022-11-27T22:36:51.989Z,6.80
2022-11-27T22:39:19.021Z,6.80
2022-11-27T22:41:46.442Z,6.70
2022-11-27T22:44:19.471Z,6.70
2022-11-27T22:46:47.137Z,6.70
2022-11-27T22:49:16.077Z,6.70
2022-11-27T22:51:47.403Z,6.60
2022-11-27T22:54:17.200Z,6.60
2022-11-27T22:56:45.894Z,6.60
2022-11-27T23:02:02.635Z,6.60
2022-11-27T23:04:30.019Z,6.50
2022-11-27T23:07:00.870Z,6.50
2022-11-27T23:09:28.925Z,6.50
2022-11-27T23:11:57.093Z,6.50
2022-11-27T23:14:30.008Z,6.50
2022-11-27T23:16:57.355Z,6.50
2022-11-27T23:19:24.431Z,6.50
2022-11-27T23:21:57.691Z,6.50
2022-11-27T23:24:25.033Z,6.50
2022-11-27T23:26:53.324Z,6.50
2022-11-27T23:29:20.968Z,6.50
2022-11-27T23:31:48.612Z,6.50
2022-11-27T23:34:16.329Z,6.50
2022-11-27T23:36:43.379Z,6.50
2022-11-27T23:39:13.361Z,6.50
2022-11-27T23:41:40.744Z,6.50
2022-11-27T23:44:08.303Z,6.50
2022-11-27T23:46:35.405Z,6.60
2022-11-27T23:49:05.347Z,6.60
2022-11-27T23:51:33.083Z,6.60
2022-11-27T23:54:01.299Z,6.60
2022-11-27T23:56:30.810Z,6.60
2022-11-27T23:59:02.221Z,6.60
